Abadiania, Brazil
Current Conditions -  °F | °C
As of 2:00 PM on Friday 19 Dec 2014 (Local Time) from SBAN Reporting Station
Few Clouds Few Clouds  
Wind Chill: 79°   Ceiling: Unl
Heat Index: 80°   Visibility: 6mi
Dew Point: 61°   Wind: 14mph
Humidity: 54%   Direction: 20°NNE
Pressure: 30"   Gusts: NA
Location:  16.2°S, 48.71°W
Report Text: SBAN 191600Z 02012KT 9999 FEW025 FEW030TCU 26/16 Q1016
Loading
Personal Weather Stations






























Interactive Weather Map New forecast layout! Learn more

10-Day Weather Forecast

Advertisements
Track Severe Weather on mobile